sensor_id;sensor_type;location;lat;lon;timestamp;pressure;altitude;pressure_sealevel;temperature;humidity
4617;BME280;2321;42.704;23.384;2022-11-18T00:01:07;94423.75;;;8.42;100.00
4617;BME280;2321;42.704;23.384;2022-11-18T00:03:36;94426.78;;;8.32;100.00
4617;BME280;2321;42.704;23.384;2022-11-18T00:06:04;94419.25;;;8.29;100.00
4617;BME280;2321;42.704;23.384;2022-11-18T00:08:32;94421.09;;;8.22;100.00
4617;BME280;2321;42.704;23.384;2022-11-18T00:11:04;94411.28;;;8.22;100.00
4617;BME280;2321;42.704;23.384;2022-11-18T00:13:31;94420.06;;;8.30;100.00
4617;BME280;2321;42.704;23.384;2022-11-18T00:16:15;94404.16;;;8.30;100.00
4617;BME280;2321;42.704;23.384;2022-11-18T00:18:43;94422.13;;;8.27;100.00
4617;BME280;2321;42.704;23.384;2022-11-18T00:21:11;94419.25;;;8.29;100.00
4617;BME280;2321;42.704;23.384;2022-11-18T00:23:38;94420.88;;;8.23;100.00
4617;BME280;2321;42.704;23.384;2022-11-18T00:26:07;94417.22;;;8.24;100.00
4617;BME280;2321;42.704;23.384;2022-11-18T00:28:34;94431.47;;;8.16;100.00
4617;BME280;2321;42.704;23.384;2022-11-18T00:31:02;94426.56;;;8.13;100.00
4617;BME280;2321;42.704;23.384;2022-11-18T00:33:29;94417.19;;;8.11;100.00
4617;BME280;2321;42.704;23.384;2022-11-18T00:35:58;94417.19;;;8.17;100.00
4617;BME280;2321;42.704;23.384;2022-11-18T00:38:25;94414.53;;;8.11;100.00
4617;BME280;2321;42.704;23.384;2022-11-18T00:40:59;94417.19;;;8.11;100.00
4617;BME280;2321;42.704;23.384;2022-11-18T00:43:26;94422.06;;;8.00;100.00
4617;BME280;2321;42.704;23.384;2022-11-18T00:45:52;94414.91;;;7.94;100.00
4617;BME280;2321;42.704;23.384;2022-11-18T00:48:19;94416.94;;;7.92;100.00
4617;BME280;2321;42.704;23.384;2022-11-18T00:50:47;94418.53;;;7.86;100.00
4617;BME280;2321;42.704;23.384;2022-11-18T00:53:16;94421.41;;;7.84;100.00
4617;BME280;2321;42.704;23.384;2022-11-18T00:55:43;94413.44;;;7.78;100.00
4617;BME280;2321;42.704;23.384;2022-11-18T00:58:10;94416.28;;;7.83;100.00
4617;BME280;2321;42.704;23.384;2022-11-18T01:00:39;94416.06;;;7.78;100.00
4617;BME280;2321;42.704;23.384;2022-11-18T01:03:06;94423.41;;;7.82;100.00
4617;BME280;2321;42.704;23.384;2022-11-18T01:05:33;94419.16;;;7.81;100.00
4617;BME280;2321;42.704;23.384;2022-11-18T01:08:00;94410.34;;;7.74;100.00
4617;BME280;2321;42.704;23.384;2022-11-18T01:10:28;94414.81;;;7.67;100.00
4617;BME280;2321;42.704;23.384;2022-11-18T01:12:55;94414.56;;;7.55;100.00
4617;BME280;2321;42.704;23.384;2022-11-18T01:15:41;94415.81;;;7.59;100.00
4617;BME280;2321;42.704;23.384;2022-11-18T01:18:08;94422.28;;;7.49;100.00
4617;BME280;2321;42.704;23.384;2022-11-18T01:20:35;94421.88;;;7.52;100.00
4617;BME280;2321;42.704;23.384;2022-11-18T01:23:02;94427.41;;;7.51;100.00
4617;BME280;2321;42.704;23.384;2022-11-18T01:25:31;94423.94;;;7.50;100.00
4617;BME280;2321;42.704;23.384;2022-11-18T01:27:58;94417.59;;;7.51;100.00
4617;BME280;2321;42.704;23.384;2022-11-18T01:30:25;94418.03;;;7.55;100.00
4617;BME280;2321;42.704;23.384;2022-11-18T01:32:52;94421.09;;;7.59;100.00
4617;BME280;2321;42.704;23.384;2022-11-18T01:35:19;94416.81;;;7.51;100.00
4617;BME280;2321;42.704;23.384;2022-11-18T01:37:46;94423.75;;;7.59;100.00
4617;BME280;2321;42.704;23.384;2022-11-18T01:40:13;94419.28;;;7.59;100.00
4617;BME280;2321;42.704;23.384;2022-11-18T01:42:42;94412.97;;;7.67;100.00
4617;BME280;2321;42.704;23.384;2022-11-18T01:45:24;94410.38;;;7.81;100.00
4617;BME280;2321;42.704;23.384;2022-11-18T01:47:56;94413.19;;;7.66;100.00
4617;BME280;2321;42.704;23.384;2022-11-18T01:50:27;94422.59;;;7.75;100.00
4617;BME280;2321;42.704;23.384;2022-11-18T01:52:58;94424.38;;;7.68;100.00
4617;BME280;2321;42.704;23.384;2022-11-18T01:55:30;94413.03;;;7.81;100.00
4617;BME280;2321;42.704;23.384;2022-11-18T01:58:04;94423.81;;;7.79;100.00
4617;BME280;2321;42.704;23.384;2022-11-18T02:00:32;94417.66;;;7.65;100.00
4617;BME280;2321;42.704;23.384;2022-11-18T02:03:00;94409.28;;;7.61;100.00
4617;BME280;2321;42.704;23.384;2022-11-18T02:05:28;94410.31;;;7.60;100.00
4617;BME280;2321;42.704;23.384;2022-11-18T02:07:57;94412.72;;;7.55;100.00
4617;BME280;2321;42.704;23.384;2022-11-18T02:10:24;94412.34;;;7.58;100.00
4617;BME280;2321;42.704;23.384;2022-11-18T02:12:51;94411.66;;;7.43;100.00
4617;BME280;2321;42.704;23.384;2022-11-18T02:15:26;94408.47;;;7.54;100.00
4617;BME280;2321;42.704;23.384;2022-11-18T02:18:04;94396.38;;;7.38;100.00
4617;BME280;2321;42.704;23.384;2022-11-18T02:20:36;94406.78;;;7.46;100.00
4617;BME280;2321;42.704;23.384;2022-11-18T02:23:26;94411.25;;;7.39;100.00
4617;BME280;2321;42.704;23.384;2022-11-18T02:26:10;94407.19;;;7.43;100.00
4617;BME280;2321;42.704;23.384;2022-11-18T02:28:58;94413.75;;;7.54;100.00
4617;BME280;2321;42.704;23.384;2022-11-18T02:31:31;94415.38;;;7.55;100.00
4617;BME280;2321;42.704;23.384;2022-11-18T02:34:04;94406.41;;;7.56;100.00
4617;BME280;2321;42.704;23.384;2022-11-18T02:36:40;94414.38;;;7.56;100.00
4617;BME280;2321;42.704;23.384;2022-11-18T02:39:12;94414.19;;;7.65;100.00
4617;BME280;2321;42.704;23.384;2022-11-18T02:41:44;94409.09;;;7.70;100.00
4617;BME280;2321;42.704;23.384;2022-11-18T02:44:14;94409.34;;;7.75;100.00
4617;BME280;2321;42.704;23.384;2022-11-18T02:46:44;94408.31;;;7.69;100.00
4617;BME280;2321;42.704;23.384;2022-11-18T02:49:16;94405.91;;;7.81;100.00
4617;BME280;2321;42.704;23.384;2022-11-18T02:51:46;94407.34;;;7.91;100.00
4617;BME280;2321;42.704;23.384;2022-11-18T02:54:16;94406.13;;;7.93;100.00
4617;BME280;2321;42.704;23.384;2022-11-18T02:56:45;94403.28;;;7.95;100.00
4617;BME280;2321;42.704;23.384;2022-11-18T02:59:18;94411.84;;;8.04;100.00
4617;BME280;2321;42.704;23.384;2022-11-18T03:01:46;94406.56;;;8.04;100.00
4617;BME280;2321;42.704;23.384;2022-11-18T03:04:14;94412.47;;;7.99;100.00
4617;BME280;2321;42.704;23.384;2022-11-18T03:06:46;94403.50;;;8.00;100.00
4617;BME280;2321;42.704;23.384;2022-11-18T03:09:19;94415.16;;;8.06;100.00
4617;BME280;2321;42.704;23.384;2022-11-18T03:11:53;94415.75;;;8.08;100.00
4617;BME280;2321;42.704;23.384;2022-11-18T03:14:27;94412.66;;;7.98;100.00
4617;BME280;2321;42.704;23.384;2022-11-18T03:16:59;94421.47;;;8.12;100.00
4617;BME280;2321;42.704;23.384;2022-11-18T03:19:35;94420.41;;;7.99;100.00
4617;BME280;2321;42.704;23.384;2022-11-18T03:22:11;94416.75;;;8.07;100.00
4617;BME280;2321;42.704;23.384;2022-11-18T03:24:44;94410.22;;;8.10;100.00
4617;BME280;2321;42.704;23.384;2022-11-18T03:27:19;94411.84;;;8.04;100.00
4617;BME280;2321;42.704;23.384;2022-11-18T03:29:53;94414.72;;;8.02;100.00
4617;BME280;2321;42.704;23.384;2022-11-18T03:32:25;94403.50;;;7.93;100.00
4617;BME280;2321;42.704;23.384;2022-11-18T03:34:57;94404.06;;;7.89;100.00
4617;BME280;2321;42.704;23.384;2022-11-18T03:37:25;94401.81;;;7.85;100.00
4617;BME280;2321;42.704;23.384;2022-11-18T03:39:57;94397.53;;;7.91;100.00
4617;BME280;2321;42.704;23.384;2022-11-18T03:42:28;94403.69;;;7.99;100.00
4617;BME280;2321;42.704;23.384;2022-11-18T03:45:02;94405.75;;;8.03;100.00
4617;BME280;2321;42.704;23.384;2022-11-18T03:47:34;94405.31;;;7.93;100.00
4617;BME280;2321;42.704;23.384;2022-11-18T03:50:06;94398.19;;;7.93;100.00
4617;BME280;2321;42.704;23.384;2022-11-18T03:52:38;94393.06;;;7.92;100.00
4617;BME280;2321;42.704;23.384;2022-11-18T03:55:10;94389.00;;;7.96;100.00
4617;BME280;2321;42.704;23.384;2022-11-18T03:57:43;94380.06;;;7.97;100.00
4617;BME280;2321;42.704;23.384;2022-11-18T04:00:15;94385.16;;;8.05;100.00
4617;BME280;2321;42.704;23.384;2022-11-18T04:02:43;94391.06;;;8.07;100.00
4617;BME280;2321;42.704;23.384;2022-11-18T04:05:12;94398.63;;;8.11;100.00
4617;BME280;2321;42.704;23.384;2022-11-18T04:07:45;94394.31;;;8.10;100.00
4617;BME280;2321;42.704;23.384;2022-11-18T04:10:17;94393.50;;;7.95;100.00
4617;BME280;2321;42.704;23.384;2022-11-18T04:12:47;94388.16;;;7.89;100.00
4617;BME280;2321;42.704;23.384;2022-11-18T04:15:17;94393.44;;;7.75;100.00
4617;BME280;2321;42.704;23.384;2022-11-18T04:17:44;94401.16;;;7.70;100.00
4617;BME280;2321;42.704;23.384;2022-11-18T04:20:13;94391.38;;;7.70;100.00
4617;BME280;2321;42.704;23.384;2022-11-18T04:22:42;94406.66;;;7.68;100.00
4617;BME280;2321;42.704;23.384;2022-11-18T04:25:09;94400.38;;;7.69;100.00
4617;BME280;2321;42.704;23.384;2022-11-18T04:27:36;94413.22;;;7.72;100.00
4617;BME280;2321;42.704;23.384;2022-11-18T04:30:05;94401.59;;;7.73;100.00
4617;BME280;2321;42.704;23.384;2022-11-18T04:32:34;94410.34;;;7.74;100.00
4617;BME280;2321;42.704;23.384;2022-11-18T04:35:01;94403.19;;;7.68;100.00
4617;BME280;2321;42.704;23.384;2022-11-18T04:37:28;94403.41;;;7.73;100.00
4617;BME280;2321;42.704;23.384;2022-11-18T04:39:54;94401.22;;;7.83;100.00
4617;BME280;2321;42.704;23.384;2022-11-18T04:42:21;94420.38;;;7.79;100.00
4617;BME280;2321;42.704;23.384;2022-11-18T04:44:48;94423.59;;;7.74;100.00
4617;BME280;2321;42.704;23.384;2022-11-18T04:47:15;94423.41;;;7.82;100.00
4617;BME280;2321;42.704;23.384;2022-11-18T04:49:43;94431.75;;;7.79;100.00
4617;BME280;2321;42.704;23.384;2022-11-18T04:52:10;94417.31;;;7.89;100.00
4617;BME280;2321;42.704;23.384;2022-11-18T04:54:37;94420.41;;;7.92;100.00
4617;BME280;2321;42.704;23.384;2022-11-18T04:57:04;94416.34;;;7.97;100.00
4617;BME280;2321;42.704;23.384;2022-11-18T04:59:31;94416.94;;;7.92;100.00
4617;BME280;2321;42.704;23.384;2022-11-18T05:01:58;94417.16;;;7.97;100.00
4617;BME280;2321;42.704;23.384;2022-11-18T05:04:28;94420.59;;;7.98;100.00
4617;BME280;2321;42.704;23.384;2022-11-18T05:06:58;94406.75;;;8.02;100.00
4617;BME280;2321;42.704;23.384;2022-11-18T05:09:25;94410.00;;;7.98;100.00
4617;BME280;2321;42.704;23.384;2022-11-18T05:11:52;94412.03;;;7.95;100.00
4617;BME280;2321;42.704;23.384;2022-11-18T05:14:37;94406.75;;;8.02;100.00
4617;BME280;2321;42.704;23.384;2022-11-18T05:17:06;94413.91;;;8.09;100.00
4617;BME280;2321;42.704;23.384;2022-11-18T05:19:33;94405.34;;;8.13;100.00
4617;BME280;2321;42.704;23.384;2022-11-18T05:22:01;94417.56;;;8.07;100.00
4617;BME280;2321;42.704;23.384;2022-11-18T05:24:28;94424.13;;;8.12;100.00
4617;BME280;2321;42.704;23.384;2022-11-18T05:26:55;94424.13;;;8.12;100.00
4617;BME280;2321;42.704;23.384;2022-11-18T05:29:22;94417.78;;;8.13;100.00
4617;BME280;2321;42.704;23.384;2022-11-18T05:31:49;94432.09;;;8.25;100.00
4617;BME280;2321;42.704;23.384;2022-11-18T05:34:16;94426.19;;;8.23;100.00
4617;BME280;2321;42.704;23.384;2022-11-18T05:36:43;94434.75;;;8.19;100.00
4617;BME280;2321;42.704;23.384;2022-11-18T05:39:11;94427.41;;;8.21;100.00
4617;BME280;2321;42.704;23.384;2022-11-18T05:41:38;94431.91;;;8.27;100.00
4617;BME280;2321;42.704;23.384;2022-11-18T05:44:22;94419.88;;;8.24;100.00
4617;BME280;2321;42.704;23.384;2022-11-18T05:46:49;94420.88;;;8.23;100.00
4617;BME280;2321;42.704;23.384;2022-11-18T05:49:16;94422.31;;;8.26;100.00
4617;BME280;2321;42.704;23.384;2022-11-18T05:51:43;94421.72;;;8.31;100.00
4617;BME280;2321;42.704;23.384;2022-11-18T05:54:13;94429.03;;;8.28;100.00
4617;BME280;2321;42.704;23.384;2022-11-18T05:56:42;94417.00;;;8.26;100.00
4617;BME280;2321;42.704;23.384;2022-11-18T05:59:10;94425.78;;;8.33;100.00
4617;BME280;2321;42.704;23.384;2022-11-18T06:01:41;94415.78;;;8.22;100.00
4617;BME280;2321;42.704;23.384;2022-11-18T06:04:14;94433.31;;;8.23;100.00
4617;BME280;2321;42.704;23.384;2022-11-18T06:06:43;94433.69;;;8.13;100.00
4617;BME280;2321;42.704;23.384;2022-11-18T06:09:15;94424.75;;;8.21;100.00
4617;BME280;2321;42.704;23.384;2022-11-18T06:11:48;94431.06;;;8.20;100.00
4617;BME280;2321;42.704;23.384;2022-11-18T06:14:19;94413.13;;;8.22;100.00
4617;BME280;2321;42.704;23.384;2022-11-18T06:16:50;94420.47;;;8.26;100.00
4617;BME280;2321;42.704;23.384;2022-11-18T06:19:18;94391.69;;;8.03;100.00
4617;BME280;2321;42.704;23.384;2022-11-18T06:21:46;94431.88;;;8.13;100.00
4617;BME280;2321;42.704;23.384;2022-11-18T06:24:15;94428.38;;;8.13;100.00
4617;BME280;2321;42.704;23.384;2022-11-18T06:26:43;94433.69;;;8.13;100.00
4617;BME280;2321;42.704;23.384;2022-11-18T06:29:12;94416.78;;;8.21;100.00
4617;BME280;2321;42.704;23.384;2022-11-18T06:31:41;94423.94;;;8.20;100.00
4617;BME280;2321;42.704;23.384;2022-11-18T06:34:08;94407.81;;;8.15;100.00
4617;BME280;2321;42.704;23.384;2022-11-18T06:36:35;94409.63;;;8.07;100.00
4617;BME280;2321;42.704;23.384;2022-11-18T06:39:03;94410.03;;;8.11;100.00
4617;BME280;2321;42.704;23.384;2022-11-18T06:41:31;94409.44;;;8.16;100.00
4617;BME280;2321;42.704;23.384;2022-11-18T06:43:58;94392.50;;;8.17;100.00
4617;BME280;2321;42.704;23.384;2022-11-18T06:46:24;94410.25;;;8.23;100.00
4617;BME280;2321;42.704;23.384;2022-11-18T06:49:09;94411.50;;;8.21;100.00
4617;BME280;2321;42.704;23.384;2022-11-18T06:51:35;94415.38;;;8.18;100.00
4617;BME280;2321;42.704;23.384;2022-11-18T06:54:03;94404.53;;;8.13;100.00
4617;BME280;2321;42.704;23.384;2022-11-18T06:56:33;94407.59;;;8.16;100.00
4617;BME280;2321;42.704;23.384;2022-11-18T06:59:00;94418.81;;;8.12;100.00
4617;BME280;2321;42.704;23.384;2022-11-18T07:01:28;94404.97;;;8.23;100.00
4617;BME280;2321;42.704;23.384;2022-11-18T07:03:56;94407.22;;;8.26;100.00
4617;BME280;2321;42.704;23.384;2022-11-18T07:06:25;94407.22;;;8.26;100.00
4617;BME280;2321;42.704;23.384;2022-11-18T07:08:52;94405.78;;;8.37;100.00
4617;BME280;2321;42.704;23.384;2022-11-18T07:11:21;94413.16;;;8.42;100.00
4617;BME280;2321;42.704;23.384;2022-11-18T07:13:50;94401.72;;;8.55;100.00
4617;BME280;2321;42.704;23.384;2022-11-18T07:16:19;94402.75;;;8.54;100.00
4617;BME280;2321;42.704;23.384;2022-11-18T07:18:47;94410.75;;;8.61;100.00
4617;BME280;2321;42.704;23.384;2022-11-18T07:21:15;94383.78;;;8.64;100.00
4617;BME280;2321;42.704;23.384;2022-11-18T07:23:43;94367.66;;;8.66;100.00
4617;BME280;2321;42.704;23.384;2022-11-18T07:26:10;94379.09;;;8.73;100.00
4617;BME280;2321;42.704;23.384;2022-11-18T07:28:38;94386.84;;;8.75;100.00
4617;BME280;2321;42.704;23.384;2022-11-18T07:31:08;94389.06;;;8.78;100.00
4617;BME280;2321;42.704;23.384;2022-11-18T07:33:35;94400.50;;;8.85;100.00
4617;BME280;2321;42.704;23.384;2022-11-18T07:36:04;94400.31;;;8.80;100.00
4617;BME280;2321;42.704;23.384;2022-11-18T07:38:32;94376.41;;;8.87;100.00
4617;BME280;2321;42.704;23.384;2022-11-18T07:41:03;94387.44;;;8.90;100.00
4617;BME280;2321;42.704;23.384;2022-11-18T07:43:31;94379.66;;;8.96;100.00
4617;BME280;2321;42.704;23.384;2022-11-18T07:46:08;94381.69;;;9.00;100.00
4617;BME280;2321;42.704;23.384;2022-11-18T07:48:35;94379.69;;;8.89;100.00
4617;BME280;2321;42.704;23.384;2022-11-18T07:51:02;94389.50;;;8.81;100.00
4617;BME280;2321;42.704;23.384;2022-11-18T07:53:29;94383.13;;;8.89;100.00
4617;BME280;2321;42.704;23.384;2022-11-18T07:55:56;94379.88;;;8.94;100.00
4617;BME280;2321;42.704;23.384;2022-11-18T07:58:23;94385.19;;;9.01;100.00
4617;BME280;2321;42.704;23.384;2022-11-18T08:00:50;94391.09;;;8.96;100.00
4617;BME280;2321;42.704;23.384;2022-11-18T08:03:18;94398.28;;;8.82;100.00
4617;BME280;2321;42.704;23.384;2022-11-18T08:05:45;94403.34;;;8.83;100.00
4617;BME280;2321;42.704;23.384;2022-11-18T08:08:12;94406.66;;;8.86;100.00
4617;BME280;2321;42.704;23.384;2022-11-18T08:10:39;94409.28;;;8.79;100.00
4617;BME280;2321;42.704;23.384;2022-11-18T08:13:06;94414.78;;;8.77;100.00
4617;BME280;2321;42.704;23.384;2022-11-18T08:15:32;94402.34;;;8.78;100.00
4617;BME280;2321;42.704;23.384;2022-11-18T08:18:02;94414.78;;;8.98;100.00
4617;BME280;2321;42.704;23.384;2022-11-18T08:20:32;94409.06;;;9.08;100.00
4617;BME280;2321;42.704;23.384;2022-11-18T08:22:59;94400.88;;;9.02;100.00
4617;BME280;2321;42.704;23.384;2022-11-18T08:25:26;94402.13;;;9.07;100.00
4617;BME280;2321;42.704;23.384;2022-11-18T08:27:53;94400.28;;;9.07;100.00
4617;BME280;2321;42.704;23.384;2022-11-18T08:30:20;94391.66;;;9.19;100.00
4617;BME280;2321;42.704;23.384;2022-11-18T08:32:47;94375.72;;;9.25;100.00
4617;BME280;2321;42.704;23.384;2022-11-18T08:35:14;94373.81;;;9.40;100.00
4617;BME280;2321;42.704;23.384;2022-11-18T08:37:42;94376.22;;;9.55;100.00
4617;BME280;2321;42.704;23.384;2022-11-18T08:40:10;94379.03;;;9.67;100.00
4617;BME280;2321;42.704;23.384;2022-11-18T08:42:37;94372.28;;;9.71;100.00
4617;BME280;2321;42.704;23.384;2022-11-18T08:45:04;94363.31;;;9.65;100.00
4617;BME280;2321;42.704;23.384;2022-11-18T08:47:32;94353.81;;;9.83;100.00
4617;BME280;2321;42.704;23.384;2022-11-18T08:49:59;94351.94;;;9.90;100.00
4617;BME280;2321;42.704;23.384;2022-11-18T08:52:26;94349.47;;;9.89;100.00
4617;BME280;2321;42.704;23.384;2022-11-18T08:54:54;94351.47;;;9.94;100.00
4617;BME280;2321;42.704;23.384;2022-11-18T08:57:21;94340.75;;;10.07;100.00
4617;BME280;2321;42.704;23.384;2022-11-18T08:59:48;94339.91;;;10.13;100.00
4617;BME280;2321;42.704;23.384;2022-11-18T09:02:16;94321.31;;;10.07;100.00
4617;BME280;2321;42.704;23.384;2022-11-18T09:04:45;94309.50;;;10.02;100.00
4617;BME280;2321;42.704;23.384;2022-11-18T09:07:12;94290.06;;;10.02;100.00
4617;BME280;2321;42.704;23.384;2022-11-18T09:09:39;94298.44;;;10.06;100.00
4617;BME280;2321;42.704;23.384;2022-11-18T09:12:07;94288.44;;;10.01;100.00
4617;BME280;2321;42.704;23.384;2022-11-18T09:14:34;94281.47;;;10.00;100.00
4617;BME280;2321;42.704;23.384;2022-11-18T09:17:01;94296.25;;;9.96;100.00
4617;BME280;2321;42.704;23.384;2022-11-18T09:19:28;94307.72;;;9.96;100.00
4617;BME280;2321;42.704;23.384;2022-11-18T09:21:55;94288.06;;;9.97;100.00
4617;BME280;2321;42.704;23.384;2022-11-18T09:24:22;94287.72;;;9.87;100.00
4617;BME280;2321;42.704;23.384;2022-11-18T09:26:49;94293.94;;;9.74;100.00
4617;BME280;2321;42.704;23.384;2022-11-18T09:29:19;94300.84;;;9.81;100.00
4617;BME280;2321;42.704;23.384;2022-11-18T09:31:49;94292.81;;;9.88;100.00
4617;BME280;2321;42.704;23.384;2022-11-18T09:34:16;94283.28;;;9.80;100.00
4617;BME280;2321;42.704;23.384;2022-11-18T09:36:44;94286.13;;;9.79;100.00
4617;BME280;2321;42.704;23.384;2022-11-18T09:39:11;94290.63;;;9.78;100.00
4617;BME280;2321;42.704;23.384;2022-11-18T09:41:47;94275.09;;;9.75;100.00
4617;BME280;2321;42.704;23.384;2022-11-18T09:44:30;94265.09;;;9.77;100.00
4617;BME280;2321;42.704;23.384;2022-11-18T09:47:08;94252.97;;;9.81;100.00
4617;BME280;2321;42.704;23.384;2022-11-18T09:49:41;94243.84;;;9.77;100.00
4617;BME280;2321;42.704;23.384;2022-11-18T09:52:12;94233.19;;;9.77;100.00
4617;BME280;2321;42.704;23.384;2022-11-18T09:54:42;94230.53;;;9.77;100.00
4617;BME280;2321;42.704;23.384;2022-11-18T09:57:12;94232.53;;;9.82;100.00
4617;BME280;2321;42.704;23.384;2022-11-18T09:59:42;94224.75;;;9.87;100.00
4617;BME280;2321;42.704;23.384;2022-11-18T10:02:40;94231.91;;;9.87;100.00
4617;BME280;2321;42.704;23.384;2022-11-18T10:05:14;94226.41;;;9.81;100.00
4617;BME280;2321;42.704;23.384;2022-11-18T10:07:48;94227.06;;;9.77;100.00
4617;BME280;2321;42.704;23.384;2022-11-18T10:10:21;94195.91;;;9.58;100.00
4617;BME280;2321;42.704;23.384;2022-11-18T10:12:52;94209.16;;;9.65;100.00
4617;BME280;2321;42.704;23.384;2022-11-18T10:15:28;94234.88;;;9.72;100.00
4617;BME280;2321;42.704;23.384;2022-11-18T10:18:06;94240.19;;;9.72;100.00
4617;BME280;2321;42.704;23.384;2022-11-18T10:20:47;94223.31;;;9.85;100.00
4617;BME280;2321;42.704;23.384;2022-11-18T10:23:21;94218.38;;;9.88;100.00
4617;BME280;2321;42.704;23.384;2022-11-18T10:25:51;94223.06;;;9.93;100.00
4617;BME280;2321;42.704;23.384;2022-11-18T10:28:22;94198.25;;;9.99;100.00
4617;BME280;2321;42.704;23.384;2022-11-18T10:30:51;94188.88;;;10.16;100.00
4617;BME280;2321;42.704;23.384;2022-11-18T10:33:28;94189.28;;;10.19;100.00
4617;BME280;2321;42.704;23.384;2022-11-18T10:36:18;94189.59;;;10.30;100.00
4617;BME280;2321;42.704;23.384;2022-11-18T10:38:45;94183.03;;;10.51;100.00
4617;BME280;2321;42.704;23.384;2022-11-18T10:41:14;94195.94;;;10.48;100.00
4617;BME280;2321;42.704;23.384;2022-11-18T10:43:46;94173.63;;;10.49;100.00
4617;BME280;2321;42.704;23.384;2022-11-18T10:46:24;94168.41;;;10.61;100.00
4617;BME280;2321;42.704;23.384;2022-11-18T10:49:18;94174.63;;;10.73;100.00
4617;BME280;2321;42.704;23.384;2022-11-18T10:51:47;94182.78;;;10.91;100.00
4617;BME280;2321;42.704;23.384;2022-11-18T10:54:16;94163.75;;;11.06;100.00
4617;BME280;2321;42.704;23.384;2022-11-18T10:56:45;94152.31;;;11.17;100.00
4617;BME280;2321;42.704;23.384;2022-11-18T10:59:26;94149.47;;;11.31;100.00
4617;BME280;2321;42.704;23.384;2022-11-18T11:02:13;94152.75;;;11.45;100.00
4617;BME280;2321;42.704;23.384;2022-11-18T11:04:43;94163.06;;;11.53;100.00
4617;BME280;2321;42.704;23.384;2022-11-18T11:07:15;94154.84;;;11.55;100.00
4617;BME280;2321;42.704;23.384;2022-11-18T11:09:42;94149.28;;;11.57;100.00
4617;BME280;2321;42.704;23.384;2022-11-18T11:12:12;94145.25;;;11.66;100.00
4617;BME280;2321;42.704;23.384;2022-11-18T11:14:47;94152.44;;;11.77;100.00
4617;BME280;2321;42.704;23.384;2022-11-18T11:17:21;94143.19;;;11.92;100.00
4617;BME280;2321;42.704;23.384;2022-11-18T11:20:03;94156.16;;;12.01;100.00
4617;BME280;2321;42.704;23.384;2022-11-18T11:22:31;94140.16;;;12.01;100.00
4617;BME280;2321;42.704;23.384;2022-11-18T11:24:58;94129.03;;;12.04;100.00
4617;BME280;2321;42.704;23.384;2022-11-18T11:27:38;94139.00;;;12.20;100.00
4617;BME280;2321;42.704;23.384;2022-11-18T11:30:13;94121.38;;;12.19;100.00
4617;BME280;2321;42.704;23.384;2022-11-18T11:33:02;94115.00;;;12.33;100.00
4617;BME280;2321;42.704;23.384;2022-11-18T11:35:40;94108.00;;;12.44;100.00
4617;BME280;2321;42.704;23.384;2022-11-18T11:38:14;94107.06;;;12.50;100.00
4617;BME280;2321;42.704;23.384;2022-11-18T11:40:52;94118.03;;;12.66;100.00
4617;BME280;2321;42.704;23.384;2022-11-18T11:43:29;94102.31;;;12.81;100.00
4617;BME280;2321;42.704;23.384;2022-11-18T11:46:08;94094.13;;;12.88;100.00
4617;BME280;2321;42.704;23.384;2022-11-18T11:48:54;94097.09;;;13.04;100.00
4617;BME280;2321;42.704;23.384;2022-11-18T11:51:29;94097.28;;;13.14;100.00
4617;BME280;2321;42.704;23.384;2022-11-18T11:54:13;94122.31;;;13.25;100.00
4617;BME280;2321;42.704;23.384;2022-11-18T11:56:45;94122.09;;;13.27;100.00
4617;BME280;2321;42.704;23.384;2022-11-18T11:59:36;94098.25;;;13.25;100.00
4617;BME280;2321;42.704;23.384;2022-11-18T12:02:28;94117.97;;;13.36;100.00
4617;BME280;2321;42.704;23.384;2022-11-18T12:05:10;94112.69;;;13.42;100.00
4617;BME280;2321;42.704;23.384;2022-11-18T12:07:56;94111.88;;;13.41;100.00
4617;BME280;2321;42.704;23.384;2022-11-18T12:10:30;94110.59;;;13.44;100.00
4617;BME280;2321;42.704;23.384;2022-11-18T12:13:11;94112.88;;;13.52;100.00
4617;BME280;2321;42.704;23.384;2022-11-18T12:15:46;94109.94;;;13.54;100.00
4617;BME280;2321;42.704;23.384;2022-11-18T12:18:20;94099.25;;;13.54;100.00
4617;BME280;2321;42.704;23.384;2022-11-18T12:20:50;94097.28;;;13.61;100.00
4617;BME280;2321;42.704;23.384;2022-11-18T12:23:19;94086.38;;;13.68;100.00
4617;BME280;2321;42.704;23.384;2022-11-18T12:26:00;94081.38;;;13.71;100.00
4617;BME280;2321;42.704;23.384;2022-11-18T12:28:34;94068.88;;;13.77;100.00
4617;BME280;2321;42.704;23.384;2022-11-18T12:31:26;94055.81;;;13.81;100.00
4617;BME280;2321;42.704;23.384;2022-11-18T12:33:59;94064.91;;;13.80;100.00
4617;BME280;2321;42.704;23.384;2022-11-18T12:36:30;94039.84;;;13.86;100.00
4617;BME280;2321;42.704;23.384;2022-11-18T12:38:58;94053.19;;;14.03;100.00
4617;BME280;2321;42.704;23.384;2022-11-18T12:41:53;94068.75;;;14.07;100.00
4617;BME280;2321;42.704;23.384;2022-11-18T12:44:38;94065.00;;;14.08;100.00
4617;BME280;2321;42.704;23.384;2022-11-18T12:47:06;94066.41;;;14.10;100.00
4617;BME280;2321;42.704;23.384;2022-11-18T12:50:07;94051.03;;;14.23;100.00
4617;BME280;2321;42.704;23.384;2022-11-18T12:52:50;94054.59;;;14.29;100.00
4617;BME280;2321;42.704;23.384;2022-11-18T12:55:30;94066.28;;;14.22;100.00
4617;BME280;2321;42.704;23.384;2022-11-18T12:57:58;94045.78;;;14.33;100.00
4617;BME280;2321;42.704;23.384;2022-11-18T13:00:33;94015.59;;;14.38;100.00
4617;BME280;2321;42.704;23.384;2022-11-18T13:03:24;94025.31;;;14.44;100.00
4617;BME280;2321;42.704;23.384;2022-11-18T13:08:23;94045.59;;;14.40;100.00
4617;BME280;2321;42.704;23.384;2022-11-18T13:10:53;94019.38;;;14.42;100.00
4617;BME280;2321;42.704;23.384;2022-11-18T13:13:41;94010.78;;;14.40;100.00
4617;BME280;2321;42.704;23.384;2022-11-18T13:16:17;93993.47;;;14.48;100.00
4617;BME280;2321;42.704;23.384;2022-11-18T13:19:01;93984.69;;;14.53;100.00
4617;BME280;2321;42.704;23.384;2022-11-18T13:21:28;93968.81;;;14.46;100.00
4617;BME280;2321;42.704;23.384;2022-11-18T13:24:15;93998.75;;;14.65;100.00
4617;BME280;2321;42.704;23.384;2022-11-18T13:26:43;94008.72;;;14.75;100.00
4617;BME280;2321;42.704;23.384;2022-11-18T13:29:31;94000.25;;;14.84;100.00
4617;BME280;2321;42.704;23.384;2022-11-18T13:32:14;93994.63;;;14.85;100.00